createdAt,value
2023-01-29T00:01:55.364Z,102878.47
2023-01-29T00:04:22.152Z,102878.28
2023-01-29T00:06:48.707Z,102883.16
2023-01-29T00:09:15.514Z,102873.69
2023-01-29T00:11:42.932Z,102885.47
2023-01-29T00:14:09.613Z,102874.25
2023-01-29T00:16:36.427Z,102876.63
2023-01-29T00:19:03.842Z,102870.53
2023-01-29T00:21:31.993Z,102867.94
2023-01-29T00:23:59.459Z,102860.47
2023-01-29T00:26:27.400Z,102860.41
2023-01-29T00:28:54.479Z,102858.72
2023-01-29T00:31:25.309Z,102858.72
2023-01-29T00:33:53.078Z,102853.59
2023-01-29T00:36:21.561Z,102854.44
2023-01-29T00:38:54.956Z,102849.19
2023-01-29T00:41:46.377Z,102832.09
2023-01-29T00:44:32.318Z,102838.19
2023-01-29T00:46:59.503Z,102828.84
2023-01-29T00:49:26.252Z,102828.97
2023-01-29T00:52:25.367Z,102826.59
2023-01-29T00:54:53.804Z,102825.75
2023-01-29T00:57:21.041Z,102819.88
2023-01-29T00:59:47.919Z,102823.28
2023-01-29T01:02:33.359Z,102821.50
2023-01-29T01:05:02.462Z,102813.91
2023-01-29T01:07:30.386Z,102815.34
2023-01-29T01:10:15.943Z,102823.44
2023-01-29T01:12:42.765Z,102818.00
2023-01-29T01:15:10.233Z,102822.81
2023-01-29T01:17:36.943Z,102807.31
2023-01-29T01:20:04.070Z,102811.34
2023-01-29T01:22:32.250Z,102808.66
2023-01-29T01:24:59.410Z,102811.06
2023-01-29T01:27:26.372Z,102817.69
2023-01-29T01:29:53.254Z,102813.28
2023-01-29T01:32:20.050Z,102812.41
2023-01-29T01:34:46.580Z,102801.25
2023-01-29T01:37:13.272Z,102798.81
2023-01-29T01:39:39.964Z,102802.97
2023-01-29T01:42:12.480Z,102818.28
2023-01-29T01:44:51.483Z,102825.09
2023-01-29T01:47:23.717Z,102821.50
2023-01-29T01:49:51.334Z,102816.22
2023-01-29T01:52:21.872Z,102816.09
2023-01-29T01:54:50.790Z,102812.75
2023-01-29T01:57:25.284Z,102819.44
2023-01-29T01:59:59.857Z,102826.00
2023-01-29T02:02:46.209Z,102822.59
2023-01-29T02:05:32.824Z,102828.41
2023-01-29T02:08:18.517Z,102822.38
2023-01-29T02:10:47.178Z,102829.13
2023-01-29T02:13:16.635Z,102827.44
2023-01-29T02:15:46.856Z,102827.25
2023-01-29T02:18:15.642Z,102829.06
2023-01-29T02:20:57.215Z,102836.56
2023-01-29T02:23:43.843Z,102840.66
2023-01-29T02:26:47.391Z,102837.22
2023-01-29T02:29:39.568Z,102837.94
2023-01-29T02:32:28.053Z,102836.97
2023-01-29T02:35:22.637Z,102839.78
2023-01-29T02:38:01.330Z,102836.09
2023-01-29T02:40:41.052Z,102837.88
2023-01-29T02:43:26.814Z,102833.25
2023-01-29T02:46:03.259Z,102822.94
2023-01-29T02:48:40.377Z,102814.47
2023-01-29T02:51:16.721Z,102827.03
2023-01-29T02:53:51.985Z,102826.44
2023-01-29T02:56:35.903Z,102823.66
2023-01-29T02:59:11.698Z,102825.28
2023-01-29T03:02:00.219Z,102827.34
2023-01-29T03:04:33.240Z,102815.06
2023-01-29T03:07:22.448Z,102815.00
2023-01-29T03:09:53.389Z,102818.19
2023-01-29T03:12:35.017Z,102815.63
2023-01-29T03:15:12.703Z,102809.66
2023-01-29T03:17:55.527Z,102812.16
2023-01-29T03:20:40.335Z,102809.59
2023-01-29T03:23:14.581Z,102812.16
2023-01-29T03:26:02.538Z,102802.78
2023-01-29T03:28:51.354Z,102798.53
2023-01-29T03:31:37.561Z,102794.97
2023-01-29T03:34:16.413Z,102799.81
2023-01-29T03:36:56.105Z,102806.63
2023-01-29T03:39:25.624Z,102800.59
2023-01-29T03:41:56.285Z,102804.69
2023-01-29T03:44:36.089Z,102803.91
2023-01-29T03:47:34.478Z,102798.69
2023-01-29T03:50:09.199Z,102795.22
2023-01-29T03:52:54.174Z,102796.69
2023-01-29T03:55:29.152Z,102780.50
2023-01-29T03:58:10.501Z,102781.13
2023-01-29T04:00:45.039Z,102788.84
2023-01-29T04:03:44.360Z,102788.72
2023-01-29T04:06:22.287Z,102781.22
2023-01-29T04:09:05.883Z,102778.63
2023-01-29T04:11:38.393Z,102772.72
2023-01-29T04:14:07.303Z,102772.56
2023-01-29T04:16:41.219Z,102773.53
2023-01-29T04:19:16.551Z,102769.00
2023-01-29T04:21:45.307Z,102772.38
2023-01-29T04:24:13.521Z,102781.00
2023-01-29T04:26:54.921Z,102775.84
2023-01-29T04:29:45.773Z,102773.13
2023-01-29T04:32:13.500Z,102766.31
2023-01-29T04:35:06.272Z,102776.47
2023-01-29T04:37:39.225Z,102765.28
2023-01-29T04:40:28.209Z,102748.25
2023-01-29T04:43:08.069Z,102737.09
2023-01-29T04:45:53.344Z,102741.28
2023-01-29T04:48:49.477Z,102743.72
2023-01-29T04:51:31.826Z,102729.94
2023-01-29T04:54:17.416Z,102736.81
2023-01-29T04:56:53.135Z,102722.97
2023-01-29T04:59:36.696Z,102727.44
2023-01-29T05:02:04.302Z,102741.16
2023-01-29T05:04:34.234Z,102728.22
2023-01-29T05:07:13.182Z,102730.72
2023-01-29T05:09:42.914Z,102719.59
2023-01-29T05:12:13.068Z,102708.31
2023-01-29T05:14:44.589Z,102717.75
2023-01-29T05:17:20.518Z,102709.84
2023-01-29T05:19:48.125Z,102698.84
2023-01-29T05:22:18.055Z,102697.94
2023-01-29T05:24:45.114Z,102700.38
2023-01-29T05:27:44.062Z,102683.94
2023-01-29T05:30:11.373Z,102679.69
2023-01-29T05:32:39.670Z,102672.66
2023-01-29T05:35:06.938Z,102673.44
2023-01-29T05:37:33.519Z,102686.16
2023-01-29T05:40:00.138Z,102689.50
2023-01-29T05:42:26.707Z,102687.69
2023-01-29T05:44:53.726Z,102689.38
2023-01-29T05:47:21.135Z,102690.03
2023-01-29T05:49:47.803Z,102702.00
2023-01-29T05:52:14.398Z,102704.81
2023-01-29T05:54:41.153Z,102710.72
2023-01-29T05:57:07.698Z,102710.63
2023-01-29T05:59:34.372Z,102708.00
2023-01-29T06:02:00.983Z,102706.88
2023-01-29T06:04:27.716Z,102704.66
2023-01-29T06:06:54.357Z,102694.69
2023-01-29T06:09:21.047Z,102709.22
2023-01-29T06:11:47.614Z,102696.41
2023-01-29T06:14:14.218Z,102701.66
2023-01-29T06:16:40.829Z,102711.94
2023-01-29T06:19:07.622Z,102713.47
2023-01-29T06:21:34.161Z,102715.16
2023-01-29T06:24:01.121Z,102721.34
2023-01-29T06:26:27.917Z,102715.94
2023-01-29T06:28:54.602Z,102713.41
2023-01-29T06:31:36.815Z,102700.47
2023-01-29T06:34:04.824Z,102698.63
2023-01-29T06:36:31.445Z,102688.56
2023-01-29T06:38:58.224Z,102673.03
2023-01-29T06:41:25.772Z,102669.41
2023-01-29T06:43:52.730Z,102669.31
2023-01-29T06:46:19.870Z,102672.88
2023-01-29T06:48:46.682Z,102684.03
2023-01-29T06:51:13.249Z,102682.19
2023-01-29T06:53:40.920Z,102686.22
2023-01-29T06:56:08.007Z,102681.06
2023-01-29T06:58:38.100Z,102677.66
2023-01-29T07:01:06.870Z,102684.69
2023-01-29T07:03:33.964Z,102678.56
2023-01-29T07:06:01.079Z,102681.22
2023-01-29T07:08:28.456Z,102690.00
2023-01-29T07:11:01.691Z,102682.28
2023-01-29T07:13:28.492Z,102678.88
2023-01-29T07:15:58.539Z,102679.53
2023-01-29T07:18:25.297Z,102682.13
2023-01-29T07:20:52.210Z,102688.19
2023-01-29T07:23:18.939Z,102683.97
2023-01-29T07:25:45.905Z,102688.94
2023-01-29T07:28:12.460Z,102687.97
2023-01-29T07:30:38.973Z,102681.06
2023-01-29T07:33:08.243Z,102681.69
2023-01-29T07:35:40.334Z,102694.28
2023-01-29T07:38:08.552Z,102685.63
2023-01-29T07:40:35.592Z,102682.44
2023-01-29T07:43:05.167Z,102688.34
2023-01-29T07:45:37.696Z,102685.41
2023-01-29T07:48:07.351Z,102686.31
2023-01-29T07:50:35.401Z,102679.50
2023-01-29T07:53:02.155Z,102674.28
2023-01-29T07:55:28.742Z,102672.59
2023-01-29T07:57:56.829Z,102673.66
2023-01-29T08:00:23.642Z,102677.59
2023-01-29T08:02:50.534Z,102675.00
2023-01-29T08:05:17.413Z,102668.97
2023-01-29T08:07:49.154Z,102675.50
2023-01-29T08:10:18.381Z,102670.25
2023-01-29T08:12:45.145Z,102671.06
2023-01-29T08:15:11.964Z,102668.38
2023-01-29T08:17:49.269Z,102659.94
2023-01-29T08:20:24.202Z,102660.47
2023-01-29T08:22:59.794Z,102675.47
2023-01-29T08:25:27.192Z,102665.09
2023-01-29T08:27:54.768Z,102660.75
2023-01-29T08:30:21.546Z,102665.75
2023-01-29T08:32:50.230Z,102656.28
2023-01-29T08:35:17.199Z,102656.88
2023-01-29T08:37:44.157Z,102650.72
2023-01-29T08:40:13.400Z,102644.41
2023-01-29T08:42:41.500Z,102642.44
2023-01-29T08:45:08.817Z,102638.28
2023-01-29T08:47:35.367Z,102627.34
2023-01-29T08:50:02.483Z,102629.63
2023-01-29T08:52:29.132Z,102635.69
2023-01-29T08:54:55.844Z,102630.31
2023-01-29T08:57:22.625Z,102626.88
2023-01-29T08:59:49.857Z,102630.22
2023-01-29T09:02:16.467Z,102628.97
2023-01-29T09:04:43.230Z,102644.91
2023-01-29T09:07:09.860Z,102645.81
2023-01-29T09:09:37.537Z,102653.97
2023-01-29T09:12:04.612Z,102645.16
2023-01-29T09:14:32.892Z,102639.69
2023-01-29T09:16:59.451Z,102638.69
2023-01-29T09:19:26.270Z,102640.00
2023-01-29T09:21:52.858Z,102642.75
2023-01-29T09:24:19.484Z,102631.94
2023-01-29T09:26:46.185Z,102633.16
2023-01-29T09:29:12.954Z,102640.91
2023-01-29T09:31:39.631Z,102633.94
2023-01-29T09:34:06.278Z,102633.94
2023-01-29T09:36:35.112Z,102638.50
2023-01-29T09:39:01.678Z,102628.09
2023-01-29T09:41:31.261Z,102624.50
2023-01-29T09:44:04.069Z,102622.69
2023-01-29T09:46:30.611Z,102619.94
2023-01-29T09:49:23.499Z,102623.38
2023-01-29T09:51:59.236Z,102611.75
2023-01-29T09:54:32.922Z,102619.19
2023-01-29T09:57:00.693Z,102622.41
2023-01-29T09:59:31.044Z,102625.25
2023-01-29T10:02:06.612Z,102611.25
2023-01-29T10:05:07.551Z,102618.19
2023-01-29T10:07:55.769Z,102623.91
2023-01-29T10:10:48.309Z,102628.81
2023-01-29T10:13:27.165Z,102635.13
2023-01-29T10:16:04.826Z,102639.13
2023-01-29T10:19:12.898Z,102631.28
2023-01-29T10:21:57.631Z,102625.72
2023-01-29T10:24:52.783Z,102623.22
2023-01-29T10:27:20.120Z,102610.13
2023-01-29T10:29:50.990Z,102590.69
2023-01-29T10:32:20.535Z,102606.09
2023-01-29T10:35:03.734Z,102602.97
2023-01-29T10:37:40.732Z,102602.25
2023-01-29T10:40:39.893Z,102598.38
2023-01-29T10:43:14.677Z,102610.38
2023-01-29T10:45:58.145Z,102601.97
2023-01-29T10:48:31.624Z,102604.84
2023-01-29T10:51:25.269Z,102599.53
2023-01-29T10:54:30.030Z,102598.31
2023-01-29T10:57:15.346Z,102591.78
2023-01-29T10:59:56.595Z,102584.19
2023-01-29T11:02:23.228Z,102579.78
2023-01-29T11:04:49.961Z,102576.44
2023-01-29T11:07:19.862Z,102576.44
2023-01-29T11:10:01.294Z,102562.94
2023-01-29T11:12:31.220Z,102550.53
2023-01-29T11:15:18.400Z,102542.69
2023-01-29T11:18:06.230Z,102519.88
2023-01-29T11:20:34.642Z,102517.38
2023-01-29T11:23:01.361Z,102502.97
2023-01-29T11:25:29.925Z,102512.84
2023-01-29T11:27:58.571Z,102502.84
2023-01-29T11:30:35.601Z,102513.50
2023-01-29T11:33:05.393Z,102498.84
2023-01-29T11:35:33.332Z,102498.41
2023-01-29T11:38:27.306Z,102495.72
2023-01-29T11:41:05.785Z,102485.59
2023-01-29T11:43:33.261Z,102490.78
2023-01-29T11:46:13.437Z,102480.88
2023-01-29T11:48:48.046Z,102475.59
2023-01-29T11:51:28.426Z,102469.31
2023-01-29T11:53:58.966Z,102460.84
2023-01-29T11:56:45.888Z,102456.88
2023-01-29T11:59:39.499Z,102453.88
2023-01-29T12:02:20.527Z,102450.06
2023-01-29T12:04:48.198Z,102448.50
2023-01-29T12:07:17.686Z,102452.88
2023-01-29T12:09:58.773Z,102445.28
2023-01-29T12:12:41.677Z,102445.47
2023-01-29T12:15:22.466Z,102440.72
2023-01-29T12:17:57.160Z,102436.56
2023-01-29T12:20:30.866Z,102434.31
2023-01-29T12:23:04.617Z,102439.16
2023-01-29T12:25:44.974Z,102438.03
2023-01-29T12:28:42.840Z,102431.31
2023-01-29T12:31:29.093Z,102428.06
2023-01-29T12:34:10.862Z,102421.34
2023-01-29T12:36:53.245Z,102403.38
2023-01-29T12:39:22.943Z,102398.72
2023-01-29T12:41:59.152Z,102393.00
2023-01-29T12:44:42.271Z,102400.34
2023-01-29T12:47:18.282Z,102387.31
2023-01-29T12:49:51.184Z,102379.50
2023-01-29T12:52:44.132Z,102380.66
2023-01-29T12:55:20.375Z,102371.44
2023-01-29T12:57:58.687Z,102368.94
2023-01-29T13:00:38.426Z,102365.44
2023-01-29T13:03:34.830Z,102357.25
2023-01-29T13:06:16.780Z,102358.47
2023-01-29T13:08:51.391Z,102357.13
2023-01-29T13:11:40.280Z,102351.44
2023-01-29T13:14:28.836Z,102344.44
2023-01-29T13:17:07.858Z,102331.91
2023-01-29T13:19:42.484Z,102330.94
2023-01-29T13:22:20.118Z,102331.97
2023-01-29T13:24:58.758Z,102320.78
2023-01-29T13:27:33.064Z,102329.31
2023-01-29T13:30:00.242Z,102309.41
2023-01-29T13:32:29.039Z,102307.34
2023-01-29T13:34:59.798Z,102311.59
2023-01-29T13:37:35.390Z,102302.44
2023-01-29T13:40:05.581Z,102295.41
2023-01-29T13:42:32.093Z,102293.47
2023-01-29T13:45:03.131Z,102285.56
2023-01-29T13:47:33.570Z,102272.75
2023-01-29T13:50:10.359Z,102269.72
2023-01-29T13:52:43.286Z,102273.75
2023-01-29T13:55:37.229Z,102271.06
2023-01-29T13:58:07.881Z,102266.69
2023-01-29T14:00:34.433Z,102268.06
2023-01-29T14:03:01.204Z,102262.16
2023-01-29T14:05:30.849Z,102265.47
2023-01-29T14:08:14.032Z,102258.22
2023-01-29T14:10:42.855Z,102267.94
2023-01-29T14:13:18.864Z,102265.88
2023-01-29T14:16:06.783Z,102266.47
2023-01-29T14:18:36.001Z,102269.16
2023-01-29T14:21:17.557Z,102257.66
2023-01-29T14:23:47.120Z,102253.63
2023-01-29T14:26:55.436Z,102250.94
2023-01-29T14:29:34.867Z,102255.97
2023-01-29T14:32:05.938Z,102252.47
2023-01-29T14:34:56.755Z,102252.88
2023-01-29T14:37:33.790Z,102251.63
2023-01-29T14:40:12.453Z,102246.25
2023-01-29T14:42:47.856Z,102246.47
2023-01-29T14:45:36.840Z,102251.13
2023-01-29T14:48:09.508Z,102249.69
2023-01-29T14:50:36.627Z,102250.28
2023-01-29T14:53:16.673Z,102243.91
2023-01-29T14:55:48.295Z,102240.38
2023-01-29T14:58:24.367Z,102235.09
2023-01-29T15:00:54.493Z,102241.19
2023-01-29T15:03:43.065Z,102237.69
2023-01-29T15:06:17.263Z,102231.69
2023-01-29T15:08:50.920Z,102222.75
2023-01-29T15:11:35.716Z,102226.38
2023-01-29T15:14:24.120Z,102219.94
2023-01-29T15:17:32.655Z,102211.78
2023-01-29T15:19:59.534Z,102208.28
2023-01-29T15:22:28.974Z,102198.97
2023-01-29T15:25:41.463Z,102199.47
2023-01-29T15:28:11.101Z,102199.59
2023-01-29T15:30:38.048Z,102199.31
2023-01-29T15:33:10.499Z,102201.03
2023-01-29T15:35:39.661Z,102197.25
2023-01-29T15:38:16.254Z,102199.72
2023-01-29T15:40:58.673Z,102199.72
2023-01-29T15:43:29.671Z,102193.09
2023-01-29T15:46:12.425Z,102181.84
2023-01-29T15:48:42.751Z,102173.75
2023-01-29T15:51:15.436Z,102185.53
2023-01-29T15:53:55.163Z,102180.06
2023-01-29T15:56:37.366Z,102177.25
2023-01-29T15:59:09.678Z,102175.81
2023-01-29T16:01:36.736Z,102169.00
2023-01-29T16:04:04.381Z,102160.94
2023-01-29T16:06:38.935Z,102159.50
2023-01-29T16:09:07.637Z,102161.66
2023-01-29T16:11:35.680Z,102154.44
2023-01-29T16:14:05.127Z,102153.91
2023-01-29T16:16:32.001Z,102159.72
2023-01-29T16:19:00.888Z,102159.94
2023-01-29T16:21:42.073Z,102167.38
2023-01-29T16:24:20.083Z,102153.72
2023-01-29T16:26:53.444Z,102149.38
2023-01-29T16:29:36.751Z,102153.00
2023-01-29T16:32:05.180Z,102148.84
2023-01-29T16:34:37.319Z,102147.41
2023-01-29T16:37:18.206Z,102150.00
2023-01-29T16:39:47.943Z,102149.16
2023-01-29T16:42:20.108Z,102158.28
2023-01-29T16:44:53.707Z,102155.69
2023-01-29T16:47:40.523Z,102148.44
2023-01-29T16:50:22.394Z,102144.81
2023-01-29T16:53:01.356Z,102131.69
2023-01-29T16:55:35.506Z,102131.78
2023-01-29T16:58:22.866Z,102128.09
2023-01-29T17:00:53.798Z,102138.84
2023-01-29T17:03:23.211Z,102128.50
2023-01-29T17:05:50.968Z,102135.34
2023-01-29T17:08:29.295Z,102137.69
2023-01-29T17:10:56.620Z,102123.84
2023-01-29T17:13:46.673Z,102124.97
2023-01-29T17:16:22.532Z,102127.66
2023-01-29T17:18:49.888Z,102128.50
2023-01-29T17:21:16.482Z,102116.25
2023-01-29T17:23:43.096Z,102113.59
2023-01-29T17:26:12.746Z,102121.88
2023-01-29T17:28:42.675Z,102116.59
2023-01-29T17:31:09.789Z,102127.34
2023-01-29T17:33:41.962Z,102126.44
2023-01-29T17:36:16.592Z,102113.28
2023-01-29T17:38:43.738Z,102111.81
2023-01-29T17:41:26.927Z,102107.06
2023-01-29T17:43:53.773Z,102102.13
2023-01-29T17:46:22.689Z,102095.00
2023-01-29T17:48:54.261Z,102101.81
2023-01-29T17:51:23.418Z,102097.66
2023-01-29T17:53:51.182Z,102096.19
2023-01-29T17:56:29.043Z,102095.28
2023-01-29T17:58:56.297Z,102095.09
2023-01-29T18:01:23.253Z,102098.72
2023-01-29T18:03:54.664Z,102094.47
2023-01-29T18:06:28.379Z,102092.69
2023-01-29T18:08:56.519Z,102089.06
2023-01-29T18:11:23.514Z,102109.06
2023-01-29T18:13:50.367Z,102094.75
2023-01-29T18:16:22.234Z,102097.88
2023-01-29T18:18:51.985Z,102095.91
2023-01-29T18:21:18.932Z,102094.47
2023-01-29T18:23:45.837Z,102087.63
2023-01-29T18:26:15.713Z,102073.28
2023-01-29T18:28:43.647Z,102065.41
2023-01-29T18:31:12.987Z,102080.63
2023-01-29T18:33:40.686Z,102069.66
2023-01-29T18:36:08.130Z,102066.03
2023-01-29T18:38:35.034Z,102061.25
2023-01-29T18:41:12.421Z,102065.41
2023-01-29T18:43:40.682Z,102052.69
2023-01-29T18:46:08.240Z,102055.25
2023-01-29T18:48:41.625Z,102043.03
2023-01-29T18:51:09.265Z,102040.03
2023-01-29T18:53:39.774Z,102040.97
2023-01-29T18:56:07.990Z,102036.00
2023-01-29T18:58:36.427Z,102039.91
2023-01-29T19:01:10.890Z,102022.16
2023-01-29T19:03:42.767Z,102019.34
2023-01-29T19:06:11.152Z,102025.44
2023-01-29T19:08:47.878Z,102018.59
2023-01-29T19:11:32.855Z,102005.28
2023-01-29T19:14:02.195Z,101996.47
2023-01-29T19:16:32.139Z,101997.72
2023-01-29T19:18:59.236Z,101964.50
2023-01-29T19:21:28.548Z,101982.09
2023-01-29T19:23:55.895Z,101968.09
2023-01-29T19:26:23.313Z,101967.59
2023-01-29T19:28:51.013Z,101960.53
2023-01-29T19:31:17.684Z,101973.06
2023-01-29T19:33:44.431Z,101967.19
2023-01-29T19:36:12.782Z,101951.44
2023-01-29T19:38:43.184Z,101935.41
2023-01-29T19:41:10.230Z,101932.69
2023-01-29T19:43:40.559Z,101944.34
2023-01-29T19:46:07.691Z,101937.22
2023-01-29T19:48:34.305Z,101929.06
2023-01-29T19:51:04.375Z,101919.81
2023-01-29T19:53:31.474Z,101914.31
2023-01-29T19:56:04.945Z,101911.72
2023-01-29T19:58:32.945Z,101905.13
2023-01-29T20:01:24.256Z,101904.06
2023-01-29T20:03:51.951Z,101918.97
2023-01-29T20:06:22.568Z,101922.91
2023-01-29T20:08:52.404Z,101923.00
2023-01-29T20:11:21.833Z,101921.88
2023-01-29T20:13:51.174Z,101916.19
2023-01-29T20:16:18.960Z,101915.72
2023-01-29T20:18:45.659Z,101923.50
2023-01-29T20:21:15.932Z,101904.22
2023-01-29T20:23:44.915Z,101909.19
2023-01-29T20:26:15.452Z,101910.22
2023-01-29T20:28:43.313Z,101923.28
2023-01-29T20:31:10.175Z,101922.56
2023-01-29T20:33:39.371Z,101923.97
2023-01-29T20:36:08.547Z,101917.72
2023-01-29T20:38:35.941Z,101901.25
2023-01-29T20:41:07.831Z,101891.50
2023-01-29T20:43:35.627Z,101909.06
2023-01-29T20:46:02.760Z,101899.88
2023-01-29T20:48:34.272Z,101902.94
2023-01-29T20:51:09.841Z,101907.53
2023-01-29T20:53:37.175Z,101908.94
2023-01-29T20:56:05.179Z,101903.78
2023-01-29T20:58:32.454Z,101893.41
2023-01-29T21:00:59.788Z,101893.03
2023-01-29T21:03:26.567Z,101877.88
2023-01-29T21:05:54.373Z,101884.47
2023-01-29T21:08:22.317Z,101902.72
2023-01-29T21:10:50.122Z,101912.75
2023-01-29T21:13:17.016Z,101914.72
2023-01-29T21:15:44.270Z,101919.06
2023-01-29T21:18:11.302Z,101912.25
2023-01-29T21:20:37.901Z,101917.19
2023-01-29T21:23:06.977Z,101913.31
2023-01-29T21:25:33.960Z,101899.13
2023-01-29T21:28:00.828Z,101883.91
2023-01-29T21:30:27.600Z,101887.59
2023-01-29T21:32:54.322Z,101881.94
2023-01-29T21:35:23.413Z,101866.41
2023-01-29T21:37:50.232Z,101880.63
2023-01-29T21:40:17.979Z,101875.34
2023-01-29T21:43:04.010Z,101887.47
2023-01-29T21:45:30.789Z,101894.88
2023-01-29T21:47:57.484Z,101894.19
2023-01-29T21:50:24.228Z,101904.19
2023-01-29T21:52:51.269Z,101903.84
2023-01-29T21:55:18.245Z,101904.53
2023-01-29T21:57:46.768Z,101891.38
2023-01-29T22:00:14.004Z,101892.31
2023-01-29T22:02:41.727Z,101882.78
2023-01-29T22:05:18.707Z,101866.06
2023-01-29T22:07:48.528Z,101858.53
2023-01-29T22:10:17.167Z,101863.59
2023-01-29T22:12:44.686Z,101850.44
2023-01-29T22:15:12.232Z,101844.75
2023-01-29T22:17:42.391Z,101800.25
2023-01-29T22:20:14.189Z,101776.72
2023-01-29T22:22:41.011Z,101751.03
2023-01-29T22:25:09.007Z,101756.22
2023-01-29T22:27:35.619Z,101779.53
2023-01-29T22:30:02.352Z,101776.72
2023-01-29T22:32:31.258Z,101784.97
2023-01-29T22:34:57.890Z,101795.31
2023-01-29T22:37:24.438Z,101781.19
2023-01-29T22:39:51.206Z,101794.38
2023-01-29T22:42:20.036Z,101801.44
2023-01-29T22:44:49.488Z,101796.25
2023-01-29T22:47:16.430Z,101788.28
2023-01-29T22:49:45.492Z,101793.91
2023-01-29T22:52:12.416Z,101791.53
2023-01-29T22:54:41.567Z,101777.78
2023-01-29T22:57:13.365Z,101801.44
2023-01-29T22:59:40.559Z,101796.00
2023-01-29T23:02:08.641Z,101781.06
2023-01-29T23:04:35.666Z,101768.25
2023-01-29T23:07:02.361Z,101744.22
2023-01-29T23:09:30.481Z,101724.41
2023-01-29T23:11:57.096Z,101719.03
2023-01-29T23:14:23.743Z,101729.38
2023-01-29T23:16:50.702Z,101748.47
2023-01-29T23:19:17.391Z,101745.84
2023-01-29T23:21:43.994Z,101761.78
2023-01-29T23:24:10.930Z,101738.81
2023-01-29T23:26:56.171Z,101734.81
2023-01-29T23:29:24.367Z,101734.81
2023-01-29T23:31:51.992Z,101726.31
2023-01-29T23:34:18.732Z,101722.78
2023-01-29T23:36:45.370Z,101728.56
2023-01-29T23:39:12.017Z,101720.53
2023-01-29T23:41:38.699Z,101717.13
2023-01-29T23:44:05.469Z,101706.28
2023-01-29T23:46:32.356Z,101707.91
2023-01-29T23:48:59.199Z,101697.66
2023-01-29T23:51:25.920Z,101697.31
2023-01-29T23:53:52.891Z,101692.25
2023-01-29T23:56:20.159Z,101687.06
2023-01-29T23:58:48.076Z,101669.50
